createdAt,value
2023-03-16T06:03:07.660Z,500.00
2023-03-16T06:04:08.559Z,500.00
2023-03-16T06:05:08.504Z,500.00
2023-03-16T06:06:08.547Z,500.00
2023-03-16T06:07:08.575Z,500.00
2023-03-16T06:08:07.609Z,500.00
2023-03-16T06:09:08.648Z,400.00
2023-03-16T06:10:08.672Z,400.00
2023-03-16T06:11:08.670Z,400.00
2023-03-16T06:12:08.725Z,400.00
2023-03-16T06:13:08.734Z,400.00
2023-03-16T06:14:08.768Z,400.00
2023-03-16T06:15:08.849Z,400.00
2023-03-16T06:16:09.074Z,400.00
2023-03-16T06:17:07.954Z,400.00
2023-03-16T06:18:09.043Z,400.00
2023-03-16T06:19:09.072Z,400.00
2023-03-16T06:20:08.132Z,400.00
2023-03-16T06:21:09.190Z,400.00
2023-03-16T06:22:09.349Z,410.00
2023-03-16T06:23:09.295Z,442.00
2023-03-16T06:24:09.319Z,482.00
2023-03-16T06:25:09.360Z,500.00
2023-03-16T06:26:09.426Z,500.00
2023-03-16T06:27:09.481Z,501.00
2023-03-16T06:28:09.484Z,500.00
2023-03-16T06:29:09.568Z,501.00
2023-03-16T06:30:09.592Z,500.00
2023-03-16T06:31:09.680Z,500.00
2023-03-16T06:32:09.690Z,500.00
2023-03-16T06:33:09.817Z,500.00
2023-03-16T06:34:09.795Z,498.00
2023-03-16T06:35:09.858Z,501.00
2023-03-16T06:36:09.931Z,500.00
2023-03-16T06:37:08.888Z,501.00
2023-03-16T06:38:09.924Z,500.00
2023-03-16T06:39:09.950Z,500.00
2023-03-16T06:40:10.023Z,504.00
2023-03-16T06:41:10.062Z,502.00
2023-03-16T06:42:09.099Z,505.00
2023-03-16T06:43:09.129Z,504.00
2023-03-16T06:44:10.173Z,502.00
2023-03-16T06:45:10.202Z,501.00
2023-03-16T06:46:10.283Z,502.00
2023-03-16T06:47:10.305Z,501.00
2023-03-16T06:48:10.299Z,503.00
2023-03-16T06:49:10.336Z,501.00
2023-03-16T06:50:10.389Z,503.00
2023-03-16T06:51:10.422Z,505.00
2023-03-16T06:52:09.446Z,501.00
2023-03-16T06:53:09.528Z,500.00
2023-03-16T06:54:10.522Z,502.00
2023-03-16T06:55:10.560Z,502.00
2023-03-16T06:56:09.613Z,504.00
2023-03-16T06:57:10.734Z,502.00
2023-03-16T06:58:10.806Z,505.00
2023-03-16T06:59:09.704Z,503.00
2023-03-16T07:00:10.721Z,502.00
2023-03-16T07:01:10.898Z,504.00
2023-03-16T07:02:09.808Z,510.00
2023-03-16T07:03:11.016Z,510.00
2023-03-16T07:04:10.040Z,513.00
2023-03-16T07:05:10.969Z,508.00
2023-03-16T07:06:11.032Z,511.00
2023-03-16T07:07:11.030Z,511.00
2023-03-16T07:08:11.062Z,515.00
2023-03-16T07:09:11.094Z,516.00
2023-03-16T07:10:11.145Z,513.00
2023-03-16T07:11:10.133Z,517.00
2023-03-16T07:12:10.162Z,519.00
2023-03-16T07:13:11.199Z,529.00
2023-03-16T07:14:11.220Z,577.00
2023-03-16T07:15:11.257Z,610.00
2023-03-16T07:16:11.300Z,606.00
2023-03-16T07:17:10.285Z,610.00
2023-03-16T07:18:11.290Z,612.00
2023-03-16T07:19:10.303Z,600.00
2023-03-16T07:20:10.365Z,601.00
2023-03-16T07:21:10.370Z,595.00
2023-03-16T07:22:10.415Z,629.00
2023-03-16T07:23:11.406Z,603.00
2023-03-16T07:24:10.448Z,599.00
2023-03-16T07:25:11.586Z,596.00
2023-03-16T07:26:11.426Z,595.00
2023-03-16T07:27:12.584Z,603.00
2023-03-16T07:28:10.436Z,606.00
2023-03-16T07:29:10.438Z,604.00
2023-03-16T07:30:11.450Z,613.00
2023-03-16T07:31:11.427Z,615.00
2023-03-16T07:32:11.590Z,625.00
2023-03-16T07:33:11.541Z,630.00
2023-03-16T07:34:11.442Z,627.00
2023-03-16T07:35:11.518Z,635.00
2023-03-16T07:36:10.537Z,623.00
2023-03-16T07:37:10.443Z,613.00
2023-03-16T07:38:11.468Z,622.00
2023-03-16T07:39:11.444Z,623.00
2023-03-16T07:40:10.436Z,635.00
2023-03-16T07:41:11.454Z,636.00
2023-03-16T07:42:11.437Z,630.00
2023-03-16T07:43:10.447Z,624.00
2023-03-16T07:44:10.436Z,630.00
2023-03-16T07:45:11.454Z,634.00
2023-03-16T07:46:10.543Z,635.00
2023-03-16T07:47:10.476Z,647.00
2023-03-16T07:48:11.477Z,642.00
2023-03-16T07:49:11.520Z,655.00
2023-03-16T07:50:10.513Z,672.00
2023-03-16T07:51:11.635Z,665.00
2023-03-16T07:52:11.581Z,705.00
2023-03-16T07:53:11.510Z,721.00
2023-03-16T07:54:10.941Z,714.00
2023-03-16T07:55:11.519Z,726.00
2023-03-16T07:56:11.515Z,722.00
2023-03-16T07:57:10.517Z,707.00
2023-03-16T07:58:11.541Z,693.00
2023-03-16T07:59:11.523Z,705.00
2023-03-16T08:00:11.511Z,707.00
2023-03-16T08:01:11.521Z,700.00
2023-03-16T08:02:10.574Z,693.00
2023-03-16T08:03:11.532Z,697.00
2023-03-16T08:04:11.517Z,687.00
2023-03-16T08:05:11.607Z,681.00
2023-03-16T08:06:11.519Z,675.00
2023-03-16T08:07:11.529Z,682.00
2023-03-16T08:08:11.546Z,666.00
2023-03-16T08:09:10.553Z,664.00
2023-03-16T08:10:11.601Z,672.00
2023-03-16T08:11:11.582Z,663.00
2023-03-16T08:12:10.596Z,663.00
2023-03-16T08:13:11.623Z,662.00
2023-03-16T08:14:11.622Z,659.00
2023-03-16T08:15:11.646Z,662.00
2023-03-16T08:16:11.673Z,662.00
2023-03-16T08:17:11.693Z,665.00
2023-03-16T08:18:11.709Z,660.00
2023-03-16T08:19:11.713Z,666.00
2023-03-16T08:20:11.719Z,660.00
2023-03-16T08:21:11.735Z,663.00
2023-03-16T08:22:11.760Z,658.00
2023-03-16T08:23:11.794Z,657.00
2023-03-16T08:24:10.800Z,659.00
2023-03-16T08:25:11.825Z,651.00
2023-03-16T08:26:11.867Z,659.00
2023-03-16T08:27:11.860Z,656.00
2023-03-16T08:28:11.880Z,654.00
2023-03-16T08:29:11.914Z,654.00
2023-03-16T08:30:11.989Z,656.00
2023-03-16T08:31:11.959Z,654.00
2023-03-16T08:32:11.966Z,656.00
2023-03-16T08:33:12.095Z,651.00
2023-03-16T08:34:11.997Z,654.00
2023-03-16T08:35:12.020Z,656.00
2023-03-16T08:36:12.169Z,658.00
2023-03-16T08:37:12.070Z,653.00
2023-03-16T08:38:12.086Z,648.00
2023-03-16T08:39:12.261Z,652.00
2023-03-16T08:40:12.144Z,650.00
2023-03-16T08:41:11.162Z,644.00
2023-03-16T08:42:12.215Z,653.00
2023-03-16T08:43:12.207Z,648.00
2023-03-16T08:44:12.231Z,650.00
2023-03-16T08:45:14.000Z,644.00
2023-03-16T08:46:12.259Z,643.00
2023-03-16T08:47:12.286Z,644.00
2023-03-16T08:48:12.555Z,647.00
2023-03-16T08:49:12.238Z,647.00
2023-03-16T08:50:12.231Z,641.00
2023-03-16T08:51:11.220Z,645.00
2023-03-16T08:52:12.206Z,641.00
2023-03-16T08:53:12.221Z,639.00
2023-03-16T08:54:12.202Z,637.00
2023-03-16T08:55:12.183Z,643.00
2023-03-16T08:56:12.176Z,641.00
2023-03-16T08:57:12.168Z,640.00
2023-03-16T08:58:12.356Z,639.00
2023-03-16T08:59:27.071Z,642.00
2023-03-16T09:00:12.161Z,642.00
2023-03-16T09:01:12.150Z,642.00
2023-03-16T09:02:12.197Z,642.00
2023-03-16T09:03:12.152Z,636.00
2023-03-16T09:04:12.143Z,632.00
2023-03-16T09:05:12.125Z,639.00
2023-03-16T09:06:12.132Z,639.00
2023-03-16T09:07:11.179Z,641.00
2023-03-16T09:08:12.100Z,633.00
2023-03-16T09:09:11.096Z,632.00
2023-03-16T09:10:12.082Z,627.00
2023-03-16T09:11:12.071Z,631.00
2023-03-16T09:12:12.067Z,633.00
2023-03-16T09:13:12.083Z,630.00
2023-03-16T09:14:11.089Z,629.00
2023-03-16T09:15:12.091Z,630.00
2023-03-16T09:16:12.160Z,629.00
2023-03-16T09:17:12.097Z,632.00
2023-03-16T09:18:12.075Z,627.00
2023-03-16T09:19:12.119Z,626.00
2023-03-16T09:20:21.866Z,630.00
2023-03-16T09:21:12.119Z,630.00
2023-03-16T09:22:12.116Z,630.00
2023-03-16T09:23:12.118Z,624.00
2023-03-16T09:24:11.113Z,629.00
2023-03-16T09:25:12.092Z,628.00
2023-03-16T09:26:12.085Z,623.00
2023-03-16T09:27:13.204Z,630.00
2023-03-16T09:28:12.078Z,629.00
2023-03-16T09:29:12.062Z,619.00
2023-03-16T09:30:12.090Z,615.00
2023-03-16T09:31:12.181Z,614.00
2023-03-16T09:32:12.040Z,619.00
2023-03-16T09:33:11.123Z,620.00
2023-03-16T09:34:12.035Z,625.00
2023-03-16T09:35:11.043Z,628.00
2023-03-16T09:36:12.134Z,622.00
2023-03-16T09:37:12.084Z,619.00
2023-03-16T09:38:12.144Z,628.00
2023-03-16T09:39:12.159Z,630.00
2023-03-16T09:40:12.276Z,628.00
2023-03-16T09:41:11.223Z,627.00
2023-03-16T09:42:11.250Z,622.00
2023-03-16T09:43:12.582Z,627.00
2023-03-16T09:44:12.308Z,631.00
2023-03-16T09:45:11.353Z,627.00
2023-03-16T09:46:11.451Z,624.00
2023-03-16T09:47:12.403Z,620.00
2023-03-16T09:48:12.441Z,621.00
2023-03-16T09:49:12.473Z,624.00
2023-03-16T09:50:12.564Z,621.00
2023-03-16T09:51:12.602Z,627.00
2023-03-16T09:52:12.544Z,622.00
2023-03-16T09:53:11.573Z,625.00
2023-03-16T09:54:12.596Z,626.00
2023-03-16T09:55:12.648Z,622.00
2023-03-16T09:56:12.669Z,628.00
2023-03-16T09:57:12.701Z,623.00
2023-03-16T09:58:12.082Z,614.00
2023-03-16T09:59:12.770Z,614.00
2023-03-16T10:00:12.796Z,611.00
2023-03-16T10:01:12.874Z,604.00
2023-03-16T10:02:12.900Z,603.00
2023-03-16T10:03:12.920Z,609.00
2023-03-16T10:04:12.961Z,611.00
2023-03-16T10:05:12.994Z,613.00
2023-03-16T10:06:13.027Z,609.00
2023-03-16T10:07:13.061Z,606.00
2023-03-16T10:08:12.199Z,604.00
2023-03-16T10:09:13.150Z,589.00
2023-03-16T10:10:12.188Z,563.00
2023-03-16T10:11:13.245Z,551.00
2023-03-16T10:12:13.313Z,535.00
2023-03-16T10:13:12.388Z,499.00
2023-03-16T10:14:13.417Z,501.00
2023-03-16T10:15:13.452Z,511.00
2023-03-16T10:16:13.438Z,511.00
2023-03-16T10:17:12.411Z,522.00
2023-03-16T10:18:13.564Z,500.00
2023-03-16T10:19:12.435Z,501.00
2023-03-16T10:20:13.464Z,498.00
2023-03-16T10:21:13.484Z,499.00
2023-03-16T10:22:13.507Z,528.00
2023-03-16T10:23:13.554Z,522.00
2023-03-16T10:24:13.653Z,528.00
2023-03-16T10:25:13.640Z,524.00
2023-03-16T10:26:13.696Z,544.00
2023-03-16T10:27:13.745Z,544.00
2023-03-16T10:28:13.792Z,537.00
2023-03-16T10:29:12.865Z,506.00
2023-03-16T10:30:13.906Z,521.00
2023-03-16T10:31:14.032Z,530.00
2023-03-16T10:32:14.004Z,552.00
2023-03-16T10:33:14.162Z,571.00
2023-03-16T10:34:13.113Z,523.00
2023-03-16T10:35:13.137Z,523.00
2023-03-16T10:36:14.261Z,525.00
2023-03-16T10:37:14.231Z,494.00
2023-03-16T10:38:14.060Z,491.00
2023-03-16T10:39:14.333Z,528.00
2023-03-16T10:40:14.451Z,560.00
2023-03-16T10:41:14.461Z,547.00
2023-03-16T10:42:14.506Z,554.00
2023-03-16T10:43:14.603Z,594.00
2023-03-16T10:45:13.698Z,564.00
2023-03-16T10:46:15.266Z,503.00
2023-03-16T10:47:14.916Z,567.00
2023-03-16T10:48:15.110Z,655.00
2023-03-16T10:49:14.944Z,649.00
2023-03-16T10:50:14.968Z,658.00
2023-03-16T10:51:15.014Z,648.00
2023-03-16T10:52:15.065Z,627.00
2023-03-16T11:34:15.917Z,651.00
2023-03-16T11:35:15.959Z,652.00
2023-03-16T11:36:16.054Z,651.00
2023-03-16T11:37:16.064Z,640.00
2023-03-16T11:38:16.072Z,641.00
2023-03-16T11:39:15.083Z,639.00
2023-03-16T11:40:16.129Z,627.00
2023-03-16T11:41:15.161Z,583.00
2023-03-16T11:42:15.218Z,527.00
2023-03-16T11:43:15.255Z,500.00
2023-03-16T11:44:15.300Z,510.00
2023-03-16T11:45:16.372Z,541.00
2023-03-16T11:46:16.458Z,558.00
2023-03-16T11:47:16.488Z,643.00
2023-03-16T11:48:16.655Z,684.00
2023-03-16T11:49:16.154Z,617.00
2023-03-16T11:50:15.693Z,629.00
2023-03-16T11:51:16.709Z,650.00
2023-03-16T11:52:16.758Z,645.00
2023-03-16T11:53:16.857Z,587.00
2023-03-16T11:54:16.860Z,550.00
2023-03-16T11:55:16.930Z,569.00
2023-03-16T11:56:16.990Z,562.00
2023-03-16T11:57:17.038Z,550.00
2023-03-16T11:58:16.102Z,590.00
2023-03-16T11:59:17.159Z,608.00
2023-03-16T12:00:16.326Z,598.00
2023-03-16T12:01:17.280Z,633.00
2023-03-16T12:02:17.483Z,652.00
2023-03-16T12:03:17.453Z,653.00
2023-03-16T12:04:17.532Z,644.00
2023-03-16T12:05:17.515Z,661.00
2023-03-16T12:06:23.059Z,673.00
2023-03-16T12:07:17.550Z,673.00
2023-03-16T12:23:17.501Z,769.00
2023-03-16T12:24:17.426Z,792.00
2023-03-16T12:25:17.468Z,786.00
2023-03-16T12:26:16.417Z,749.00
2023-03-16T12:27:17.566Z,699.00
2023-03-16T12:28:17.399Z,693.00
2023-03-16T12:29:17.404Z,698.00
2023-03-16T12:30:17.398Z,794.00
2023-03-16T12:31:17.412Z,817.00
2023-03-16T12:32:16.386Z,792.00
2023-03-16T12:33:17.374Z,803.00
2023-03-16T12:34:17.373Z,861.00
2023-03-16T12:35:17.360Z,864.00
2023-03-16T12:36:17.358Z,781.00
2023-03-16T12:37:17.353Z,848.00
2023-03-16T12:38:17.348Z,779.00
2023-03-16T12:39:16.648Z,802.00
2023-03-16T12:40:17.324Z,804.00
2023-03-16T12:41:18.110Z,775.00
2023-03-16T12:42:17.306Z,717.00
2023-03-16T12:43:17.372Z,615.00
2023-03-16T12:44:17.306Z,627.00
2023-03-16T12:45:17.290Z,677.00
2023-03-16T12:46:17.398Z,627.00
2023-03-16T12:47:17.312Z,663.00
2023-03-16T12:48:17.304Z,579.00
2023-03-16T12:49:16.290Z,575.00
2023-03-16T12:50:17.267Z,543.00
2023-03-16T12:51:17.253Z,599.00
2023-03-16T12:52:17.243Z,663.00
2023-03-16T12:53:17.252Z,599.00
2023-03-16T12:54:16.300Z,585.00
2023-03-16T12:55:17.306Z,575.00
2023-03-16T12:56:17.359Z,575.00
2023-03-16T12:57:16.425Z,571.00
2023-03-16T12:58:16.424Z,551.00
2023-03-16T12:59:17.476Z,617.00
2023-03-16T13:00:17.552Z,601.00
2023-03-16T13:01:17.600Z,653.00
2023-03-16T13:02:16.599Z,603.00
2023-03-16T13:03:17.649Z,638.00
2023-03-16T13:04:17.729Z,593.00
2023-03-16T13:05:17.782Z,652.00
2023-03-16T13:06:17.766Z,590.00
2023-03-16T13:07:17.806Z,665.00
2023-03-16T13:08:17.862Z,622.00
2023-03-16T13:09:17.887Z,637.00
2023-03-16T13:10:17.946Z,668.00
2023-03-16T13:11:17.961Z,722.00
2023-03-16T13:12:16.989Z,821.00
2023-03-16T13:13:17.049Z,592.00
2023-03-16T13:14:18.076Z,617.00
2023-03-16T13:15:18.113Z,649.00
2023-03-16T13:16:17.165Z,641.00
2023-03-16T13:17:18.297Z,614.00
2023-03-16T13:18:18.236Z,534.00
2023-03-16T13:19:18.303Z,633.00
2023-03-16T13:20:29.464Z,600.00
2023-03-16T13:21:18.316Z,603.00
2023-03-16T13:22:18.325Z,610.00
2023-03-16T13:23:18.418Z,611.00
2023-03-16T13:24:18.319Z,616.00
2023-03-16T13:25:17.304Z,627.00
2023-03-16T13:26:18.347Z,732.00
2023-03-16T13:27:18.273Z,846.00
2023-03-16T13:28:18.265Z,624.00
2023-03-16T13:29:18.305Z,604.00
2023-03-16T13:30:18.371Z,693.00
2023-03-16T13:31:17.280Z,692.00
2023-03-16T13:32:18.249Z,625.00
2023-03-16T13:33:18.251Z,626.00
2023-03-16T13:34:18.234Z,665.00
2023-03-16T13:35:18.230Z,739.00
2023-03-16T13:36:18.284Z,726.00
2023-03-16T13:37:18.286Z,634.00
2023-03-16T13:38:18.332Z,557.00
2023-03-16T13:39:18.357Z,718.00
2023-03-16T13:40:18.402Z,591.00
2023-03-16T13:41:18.446Z,741.00
2023-03-16T13:42:17.461Z,575.00
2023-03-16T13:43:17.479Z,704.00
2023-03-16T13:44:18.528Z,759.00
2023-03-16T13:45:18.550Z,924.00
2023-03-16T13:46:18.602Z,817.00
2023-03-16T13:47:20.206Z,661.00
2023-03-16T13:48:17.542Z,810.00
2023-03-16T13:49:18.539Z,748.00
2023-03-16T13:50:18.525Z,947.00
2023-03-16T13:51:18.577Z,788.00
2023-03-16T13:52:18.523Z,874.00
2023-03-16T13:53:18.517Z,945.00
2023-03-16T13:54:18.558Z,748.00
2023-03-16T13:55:18.519Z,701.00
2023-03-16T13:56:18.496Z,870.00
2023-03-16T13:57:18.478Z,654.00
2023-03-16T13:58:18.484Z,854.00
2023-03-16T13:59:18.476Z,944.00
2023-03-16T14:00:17.462Z,938.00
2023-03-16T14:01:17.536Z,756.00
2023-03-16T14:02:18.561Z,666.00
2023-03-16T14:03:18.464Z,703.00
2023-03-16T14:04:17.470Z,793.00
2023-03-16T14:05:18.426Z,848.00
2023-03-16T14:06:18.429Z,716.00
2023-03-16T14:07:18.410Z,811.00
2023-03-16T14:08:17.402Z,892.00
2023-03-16T14:09:17.409Z,647.00
2023-03-16T14:10:18.404Z,615.00
2023-03-16T14:11:18.385Z,618.00
2023-03-16T14:12:18.407Z,671.00
2023-03-16T14:13:17.400Z,681.00
2023-03-16T14:14:18.532Z,680.00
2023-03-16T14:15:17.367Z,663.00
2023-03-16T14:16:18.516Z,678.00
2023-03-16T14:17:18.386Z,627.00
2023-03-16T14:18:18.359Z,703.00
2023-03-16T14:19:17.368Z,727.00
2023-03-16T14:20:18.343Z,753.00
2023-03-16T14:21:18.354Z,949.00
2023-03-16T14:22:18.347Z,794.00
2023-03-16T14:23:18.332Z,948.00
2023-03-16T14:24:18.329Z,873.00
2023-03-16T14:25:18.352Z,937.00
2023-03-16T14:26:18.319Z,961.00
2023-03-16T14:27:18.291Z,1029.00
2023-03-16T14:28:18.303Z,973.00
2023-03-16T14:29:18.287Z,984.00
2023-03-16T14:30:18.293Z,1072.00
2023-03-16T14:31:18.355Z,1087.00
2023-03-16T14:32:17.277Z,1125.00
2023-03-16T14:33:18.291Z,1181.00
2023-03-16T14:34:18.265Z,1189.00
2023-03-16T14:35:18.267Z,1219.00
2023-03-16T14:36:17.324Z,1242.00
2023-03-16T14:37:18.242Z,1251.00
2023-03-16T14:38:17.236Z,1269.00
2023-03-16T14:39:17.256Z,1278.00
2023-03-16T14:40:17.302Z,1290.00
2023-03-16T14:41:18.357Z,1287.00
2023-03-16T14:42:18.486Z,1305.00
2023-03-16T14:43:18.504Z,1313.00
2023-03-16T14:44:17.577Z,1315.00
2023-03-16T14:45:18.625Z,1307.00
2023-03-16T14:46:17.770Z,1314.00
2023-03-16T14:47:17.739Z,1315.00
2023-03-16T14:48:18.796Z,1313.00
2023-03-16T14:49:18.901Z,1321.00
2023-03-16T14:50:18.945Z,1333.00
2023-03-16T14:51:18.996Z,1325.00
2023-03-16T14:52:19.091Z,1324.00
2023-03-16T14:53:18.121Z,1325.00
2023-03-16T14:54:19.207Z,1318.00
2023-03-16T14:55:19.260Z,1326.00
2023-03-16T14:56:19.311Z,1330.00
2023-03-16T14:57:19.363Z,1334.00
2023-03-16T14:58:19.457Z,1311.00
2023-03-16T14:59:19.482Z,1318.00
2023-03-16T15:00:19.531Z,1314.00
2023-03-16T15:01:19.759Z,1327.00
2023-03-16T15:02:19.686Z,1309.00
2023-03-16T15:03:18.669Z,1306.00
2023-03-16T15:04:18.709Z,1312.00
2023-03-16T15:05:19.762Z,1292.00
2023-03-16T15:06:19.728Z,1310.00
2023-03-16T15:07:19.754Z,1294.00
2023-03-16T15:08:19.778Z,1291.00
2023-03-16T15:09:18.784Z,1283.00
2023-03-16T15:10:19.773Z,1288.00
2023-03-16T15:11:19.776Z,1282.00
2023-03-16T15:12:19.847Z,1275.00
2023-03-16T15:13:19.780Z,1282.00
2023-03-16T15:14:19.778Z,1266.00
2023-03-16T15:15:19.784Z,1258.00
2023-03-16T15:16:19.866Z,1258.00
2023-03-16T15:17:19.779Z,1252.00
2023-03-16T15:18:19.768Z,1209.00
2023-03-16T15:19:19.786Z,1211.00
2023-03-16T15:20:19.787Z,1218.00
2023-03-16T15:21:19.847Z,1228.00
2023-03-16T15:22:19.785Z,1198.00
2023-03-16T15:23:19.793Z,1205.00
2023-03-16T15:24:19.802Z,1201.00
2023-03-16T15:25:19.817Z,1177.00
2023-03-16T15:26:19.815Z,1183.00
2023-03-16T15:27:19.805Z,1198.00
2023-03-16T15:28:19.835Z,1178.00
2023-03-16T15:29:19.837Z,1189.00
2023-03-16T15:30:18.820Z,1179.00
2023-03-16T15:31:19.848Z,1196.00
2023-03-16T15:32:19.827Z,1187.00
2023-03-16T15:33:19.834Z,1189.00
2023-03-16T15:34:19.815Z,1215.00
2023-03-16T15:35:19.951Z,1222.00
2023-03-16T15:36:19.851Z,1216.00
2023-03-16T15:37:19.850Z,1112.00
2023-03-16T15:38:19.810Z,1172.00
2023-03-16T15:39:19.817Z,1165.00
2023-03-16T15:40:19.824Z,1137.00
2023-03-16T15:41:19.827Z,1143.00
2023-03-16T15:42:19.826Z,1153.00
2023-03-16T15:43:19.821Z,1143.00
2023-03-16T15:44:19.822Z,1174.00
2023-03-16T15:45:19.816Z,1208.00
2023-03-16T15:46:19.824Z,1255.00
2023-03-16T15:47:19.821Z,1216.00
2023-03-16T15:48:19.814Z,1295.00
2023-03-16T15:49:19.816Z,1281.00
2023-03-16T15:50:19.828Z,1347.00
2023-03-16T15:51:19.825Z,1343.00
2023-03-16T15:52:18.828Z,1441.00
2023-03-16T15:53:30.010Z,1492.00
2023-03-16T15:54:19.823Z,1493.00
2023-03-16T15:55:19.803Z,1493.00
2023-03-16T15:56:19.817Z,1500.00
2023-03-16T15:57:19.796Z,1557.00
2023-03-16T15:58:18.795Z,1643.00
2023-03-16T15:59:18.785Z,1890.00
2023-03-16T16:00:18.769Z,2053.00
2023-03-16T16:01:19.892Z,2183.00
2023-03-16T16:02:19.753Z,2223.00
2023-03-16T16:03:19.964Z,2251.00
2023-03-16T16:04:20.127Z,2358.00
2023-03-16T16:05:19.748Z,2351.00
2023-03-16T16:06:19.737Z,2411.00
2023-03-16T16:07:19.723Z,2480.00
2023-03-16T16:08:19.726Z,2487.00
2023-03-16T16:09:19.766Z,2535.00
2023-03-16T16:10:19.711Z,2578.00
2023-03-16T16:11:19.693Z,2611.00
2023-03-16T16:12:19.697Z,2676.00
2023-03-16T16:13:19.690Z,2703.00
2023-03-16T16:14:18.674Z,2717.00
2023-03-16T16:15:19.731Z,2742.00
2023-03-16T16:16:19.831Z,2777.00
2023-03-16T16:17:22.597Z,2766.00
2023-03-16T16:18:21.794Z,2767.00
2023-03-16T16:19:18.653Z,2767.00
2023-03-16T16:20:19.638Z,2774.00
2023-03-16T16:21:19.654Z,2787.00
2023-03-16T16:22:18.639Z,2811.00
2023-03-16T16:23:18.620Z,2813.00
2023-03-16T16:24:18.699Z,2836.00
2023-03-16T16:25:19.629Z,2843.00
2023-03-16T16:26:18.620Z,2863.00
2023-03-16T16:27:19.594Z,2843.00
2023-03-16T16:28:19.612Z,2877.00
2023-03-16T16:29:19.576Z,2850.00
